sensor_id;sensor_type;location;lat;lon;timestamp;P1;durP1;ratioP1;P2;durP2;ratioP2
5787;SDS011;2920;48.158;12.254;2024-01-07T00:00:59;7.28;;;3.20;;
5787;SDS011;2920;48.158;12.254;2024-01-07T00:03:25;6.15;;;3.20;;
5787;SDS011;2920;48.158;12.254;2024-01-07T00:05:51;5.85;;;3.67;;
5787;SDS011;2920;48.158;12.254;2024-01-07T00:08:16;5.13;;;3.17;;
5787;SDS011;2920;48.158;12.254;2024-01-07T00:10:41;5.72;;;3.38;;
5787;SDS011;2920;48.158;12.254;2024-01-07T00:13:06;5.50;;;3.17;;
5787;SDS011;2920;48.158;12.254;2024-01-07T00:15:32;4.28;;;2.63;;
5787;SDS011;2920;48.158;12.254;2024-01-07T00:17:57;6.05;;;3.90;;
5787;SDS011;2920;48.158;12.254;2024-01-07T00:20:22;5.50;;;3.22;;
5787;SDS011;2920;48.158;12.254;2024-01-07T00:22:48;5.30;;;3.58;;
5787;SDS011;2920;48.158;12.254;2024-01-07T00:25:13;6.38;;;3.72;;
5787;SDS011;2920;48.158;12.254;2024-01-07T00:27:38;4.57;;;2.65;;
5787;SDS011;2920;48.158;12.254;2024-01-07T00:30:04;4.85;;;2.88;;
5787;SDS011;2920;48.158;12.254;2024-01-07T00:32:29;4.78;;;3.28;;
5787;SDS011;2920;48.158;12.254;2024-01-07T00:34:55;4.70;;;3.10;;
5787;SDS011;2920;48.158;12.254;2024-01-07T00:37:20;5.82;;;2.90;;
5787;SDS011;2920;48.158;12.254;2024-01-07T00:39:45;6.07;;;3.58;;
5787;SDS011;2920;48.158;12.254;2024-01-07T00:42:11;5.97;;;3.75;;
5787;SDS011;2920;48.158;12.254;2024-01-07T00:44:37;4.10;;;2.88;;
5787;SDS011;2920;48.158;12.254;2024-01-07T00:47:02;5.45;;;3.00;;
5787;SDS011;2920;48.158;12.254;2024-01-07T00:49:28;5.20;;;3.17;;
5787;SDS011;2920;48.158;12.254;2024-01-07T00:51:53;5.07;;;3.15;;
5787;SDS011;2920;48.158;12.254;2024-01-07T00:54:18;4.82;;;3.33;;
5787;SDS011;2920;48.158;12.254;2024-01-07T00:56:44;5.63;;;3.40;;
5787;SDS011;2920;48.158;12.254;2024-01-07T00:59:10;5.68;;;3.58;;
5787;SDS011;2920;48.158;12.254;2024-01-07T01:01:35;6.43;;;3.33;;
5787;SDS011;2920;48.158;12.254;2024-01-07T01:04:00;6.40;;;3.80;;
5787;SDS011;2920;48.158;12.254;2024-01-07T01:06:26;5.60;;;3.42;;
5787;SDS011;2920;48.158;12.254;2024-01-07T01:08:51;4.88;;;3.13;;
5787;SDS011;2920;48.158;12.254;2024-01-07T01:11:16;7.50;;;3.70;;
5787;SDS011;2920;48.158;12.254;2024-01-07T01:13:42;4.35;;;2.85;;
5787;SDS011;2920;48.158;12.254;2024-01-07T01:16:07;4.97;;;2.85;;
5787;SDS011;2920;48.158;12.254;2024-01-07T01:18:32;4.38;;;3.22;;
5787;SDS011;2920;48.158;12.254;2024-01-07T01:20:57;5.43;;;3.40;;
5787;SDS011;2920;48.158;12.254;2024-01-07T01:23:23;4.38;;;2.65;;
5787;SDS011;2920;48.158;12.254;2024-01-07T01:25:48;5.15;;;3.35;;
5787;SDS011;2920;48.158;12.254;2024-01-07T01:28:14;7.05;;;3.08;;
5787;SDS011;2920;48.158;12.254;2024-01-07T01:30:39;5.15;;;3.00;;
5787;SDS011;2920;48.158;12.254;2024-01-07T01:33:05;4.38;;;2.97;;
5787;SDS011;2920;48.158;12.254;2024-01-07T01:35:31;4.80;;;3.08;;
5787;SDS011;2920;48.158;12.254;2024-01-07T01:37:56;5.50;;;3.33;;
5787;SDS011;2920;48.158;12.254;2024-01-07T01:40:21;6.72;;;3.67;;
5787;SDS011;2920;48.158;12.254;2024-01-07T01:42:47;4.65;;;2.88;;
5787;SDS011;2920;48.158;12.254;2024-01-07T01:45:13;5.55;;;3.58;;
5787;SDS011;2920;48.158;12.254;2024-01-07T01:47:39;5.53;;;3.05;;
5787;SDS011;2920;48.158;12.254;2024-01-07T01:50:05;6.13;;;3.40;;
5787;SDS011;2920;48.158;12.254;2024-01-07T01:52:31;6.00;;;3.50;;
5787;SDS011;2920;48.158;12.254;2024-01-07T01:54:56;6.80;;;3.25;;
5787;SDS011;2920;48.158;12.254;2024-01-07T01:57:21;4.90;;;3.22;;
5787;SDS011;2920;48.158;12.254;2024-01-07T01:59:49;4.93;;;3.10;;
5787;SDS011;2920;48.158;12.254;2024-01-07T02:02:15;5.55;;;3.40;;
5787;SDS011;2920;48.158;12.254;2024-01-07T02:04:40;5.10;;;3.20;;
5787;SDS011;2920;48.158;12.254;2024-01-07T02:07:06;5.45;;;3.45;;
5787;SDS011;2920;48.158;12.254;2024-01-07T02:09:31;5.88;;;3.60;;
5787;SDS011;2920;48.158;12.254;2024-01-07T02:12:00;5.32;;;3.45;;
5787;SDS011;2920;48.158;12.254;2024-01-07T02:14:28;4.93;;;3.05;;
5787;SDS011;2920;48.158;12.254;2024-01-07T02:16:54;5.38;;;3.13;;
5787;SDS011;2920;48.158;12.254;2024-01-07T02:19:19;4.90;;;2.97;;
5787;SDS011;2920;48.158;12.254;2024-01-07T02:21:45;5.50;;;3.17;;
5787;SDS011;2920;48.158;12.254;2024-01-07T02:24:15;5.80;;;3.47;;
5787;SDS011;2920;48.158;12.254;2024-01-07T02:26:43;5.25;;;3.63;;
5787;SDS011;2920;48.158;12.254;2024-01-07T02:29:08;5.60;;;3.20;;
5787;SDS011;2920;48.158;12.254;2024-01-07T02:31:34;5.15;;;3.10;;
5787;SDS011;2920;48.158;12.254;2024-01-07T02:33:59;5.40;;;3.22;;
5787;SDS011;2920;48.158;12.254;2024-01-07T02:36:24;5.13;;;3.08;;
5787;SDS011;2920;48.158;12.254;2024-01-07T02:38:49;5.65;;;3.40;;
5787;SDS011;2920;48.158;12.254;2024-01-07T02:41:15;6.20;;;3.60;;
5787;SDS011;2920;48.158;12.254;2024-01-07T02:43:40;5.55;;;3.35;;
5787;SDS011;2920;48.158;12.254;2024-01-07T02:46:05;6.28;;;3.10;;
5787;SDS011;2920;48.158;12.254;2024-01-07T02:48:31;7.18;;;4.10;;
5787;SDS011;2920;48.158;12.254;2024-01-07T02:50:56;6.63;;;3.78;;
5787;SDS011;2920;48.158;12.254;2024-01-07T02:53:21;7.15;;;3.92;;
5787;SDS011;2920;48.158;12.254;2024-01-07T02:55:46;5.68;;;3.22;;
5787;SDS011;2920;48.158;12.254;2024-01-07T02:58:12;7.10;;;3.75;;
5787;SDS011;2920;48.158;12.254;2024-01-07T03:00:37;6.78;;;3.85;;
5787;SDS011;2920;48.158;12.254;2024-01-07T03:03:02;5.47;;;3.47;;
5787;SDS011;2920;48.158;12.254;2024-01-07T03:05:28;5.53;;;3.53;;
5787;SDS011;2920;48.158;12.254;2024-01-07T03:07:57;5.68;;;3.17;;
5787;SDS011;2920;48.158;12.254;2024-01-07T03:10:23;8.18;;;3.78;;
5787;SDS011;2920;48.158;12.254;2024-01-07T03:12:48;4.90;;;3.53;;
5787;SDS011;2920;48.158;12.254;2024-01-07T03:15:13;7.93;;;3.88;;
5787;SDS011;2920;48.158;12.254;2024-01-07T03:17:38;6.72;;;3.70;;
5787;SDS011;2920;48.158;12.254;2024-01-07T03:20:04;5.47;;;3.40;;
5787;SDS011;2920;48.158;12.254;2024-01-07T03:22:30;4.93;;;3.35;;
5787;SDS011;2920;48.158;12.254;2024-01-07T03:24:55;5.40;;;3.15;;
5787;SDS011;2920;48.158;12.254;2024-01-07T03:27:20;5.85;;;3.83;;
5787;SDS011;2920;48.158;12.254;2024-01-07T03:29:46;6.82;;;3.83;;
5787;SDS011;2920;48.158;12.254;2024-01-07T03:32:11;5.82;;;3.70;;
5787;SDS011;2920;48.158;12.254;2024-01-07T03:34:38;6.28;;;3.85;;
5787;SDS011;2920;48.158;12.254;2024-01-07T03:37:04;6.07;;;4.00;;
5787;SDS011;2920;48.158;12.254;2024-01-07T03:39:31;4.55;;;2.95;;
5787;SDS011;2920;48.158;12.254;2024-01-07T03:41:57;6.10;;;3.78;;
5787;SDS011;2920;48.158;12.254;2024-01-07T03:44:23;6.05;;;3.83;;
5787;SDS011;2920;48.158;12.254;2024-01-07T03:46:48;8.32;;;4.38;;
5787;SDS011;2920;48.158;12.254;2024-01-07T03:49:14;8.02;;;3.80;;
5787;SDS011;2920;48.158;12.254;2024-01-07T03:51:39;6.18;;;3.45;;
5787;SDS011;2920;48.158;12.254;2024-01-07T03:54:04;4.68;;;3.33;;
5787;SDS011;2920;48.158;12.254;2024-01-07T03:56:30;6.75;;;3.88;;
5787;SDS011;2920;48.158;12.254;2024-01-07T03:58:55;5.80;;;3.60;;
5787;SDS011;2920;48.158;12.254;2024-01-07T04:01:20;6.47;;;3.75;;
5787;SDS011;2920;48.158;12.254;2024-01-07T04:03:46;6.63;;;3.70;;
5787;SDS011;2920;48.158;12.254;2024-01-07T04:06:11;6.32;;;3.80;;
5787;SDS011;2920;48.158;12.254;2024-01-07T04:08:36;6.05;;;3.60;;
5787;SDS011;2920;48.158;12.254;2024-01-07T04:11:02;5.72;;;3.65;;
5787;SDS011;2920;48.158;12.254;2024-01-07T04:13:27;6.57;;;3.72;;
5787;SDS011;2920;48.158;12.254;2024-01-07T04:15:52;6.07;;;3.65;;
5787;SDS011;2920;48.158;12.254;2024-01-07T04:18:18;6.22;;;3.90;;
5787;SDS011;2920;48.158;12.254;2024-01-07T04:20:43;7.50;;;4.30;;
5787;SDS011;2920;48.158;12.254;2024-01-07T04:23:08;4.85;;;3.25;;
5787;SDS011;2920;48.158;12.254;2024-01-07T04:25:34;5.00;;;3.22;;
5787;SDS011;2920;48.158;12.254;2024-01-07T04:27:59;8.90;;;3.80;;
5787;SDS011;2920;48.158;12.254;2024-01-07T04:30:25;5.50;;;3.70;;
5787;SDS011;2920;48.158;12.254;2024-01-07T04:32:50;6.78;;;4.05;;
5787;SDS011;2920;48.158;12.254;2024-01-07T04:35:15;8.35;;;4.38;;
5787;SDS011;2920;48.158;12.254;2024-01-07T04:37:41;7.03;;;3.85;;
5787;SDS011;2920;48.158;12.254;2024-01-07T04:40:07;5.43;;;3.10;;
5787;SDS011;2920;48.158;12.254;2024-01-07T04:42:33;6.82;;;4.05;;
5787;SDS011;2920;48.158;12.254;2024-01-07T04:44:58;5.97;;;3.55;;
5787;SDS011;2920;48.158;12.254;2024-01-07T04:49:53;4.50;;;3.28;;
5787;SDS011;2920;48.158;12.254;2024-01-07T04:52:19;5.63;;;3.55;;
5787;SDS011;2920;48.158;12.254;2024-01-07T04:54:44;6.43;;;3.72;;
5787;SDS011;2920;48.158;12.254;2024-01-07T04:57:10;5.15;;;3.38;;
5787;SDS011;2920;48.158;12.254;2024-01-07T04:59:35;5.90;;;3.40;;
5787;SDS011;2920;48.158;12.254;2024-01-07T05:02:00;6.00;;;3.47;;
5787;SDS011;2920;48.158;12.254;2024-01-07T05:04:26;6.43;;;3.53;;
5787;SDS011;2920;48.158;12.254;2024-01-07T05:06:51;6.03;;;3.53;;
5787;SDS011;2920;48.158;12.254;2024-01-07T05:09:17;6.18;;;3.75;;
5787;SDS011;2920;48.158;12.254;2024-01-07T05:11:42;7.38;;;3.97;;
5787;SDS011;2920;48.158;12.254;2024-01-07T05:14:07;6.18;;;3.83;;
5787;SDS011;2920;48.158;12.254;2024-01-07T05:16:33;5.38;;;3.38;;
5787;SDS011;2920;48.158;12.254;2024-01-07T05:18:58;6.90;;;3.88;;
5787;SDS011;2920;48.158;12.254;2024-01-07T05:21:23;6.13;;;3.28;;
5787;SDS011;2920;48.158;12.254;2024-01-07T05:23:49;6.53;;;3.15;;
5787;SDS011;2920;48.158;12.254;2024-01-07T05:26:14;6.10;;;3.35;;
5787;SDS011;2920;48.158;12.254;2024-01-07T05:28:40;6.00;;;3.38;;
5787;SDS011;2920;48.158;12.254;2024-01-07T05:31:13;6.22;;;3.47;;
5787;SDS011;2920;48.158;12.254;2024-01-07T05:33:39;6.60;;;4.45;;
5787;SDS011;2920;48.158;12.254;2024-01-07T05:36:04;7.57;;;4.22;;
5787;SDS011;2920;48.158;12.254;2024-01-07T05:38:30;8.00;;;4.03;;
5787;SDS011;2920;48.158;12.254;2024-01-07T05:40:55;8.05;;;4.28;;
5787;SDS011;2920;48.158;12.254;2024-01-07T05:43:20;5.95;;;3.65;;
5787;SDS011;2920;48.158;12.254;2024-01-07T05:45:46;6.95;;;4.35;;
5787;SDS011;2920;48.158;12.254;2024-01-07T05:48:11;6.10;;;3.70;;
5787;SDS011;2920;48.158;12.254;2024-01-07T05:50:36;6.05;;;3.83;;
5787;SDS011;2920;48.158;12.254;2024-01-07T05:53:02;5.70;;;3.65;;
5787;SDS011;2920;48.158;12.254;2024-01-07T05:55:27;8.25;;;3.92;;
5787;SDS011;2920;48.158;12.254;2024-01-07T05:57:52;6.85;;;3.55;;
5787;SDS011;2920;48.158;12.254;2024-01-07T06:00:18;6.72;;;4.05;;
5787;SDS011;2920;48.158;12.254;2024-01-07T06:02:43;6.10;;;3.78;;
5787;SDS011;2920;48.158;12.254;2024-01-07T06:05:08;7.05;;;4.18;;
5787;SDS011;2920;48.158;12.254;2024-01-07T06:07:33;7.03;;;4.05;;
5787;SDS011;2920;48.158;12.254;2024-01-07T06:09:59;7.30;;;4.55;;
5787;SDS011;2920;48.158;12.254;2024-01-07T06:12:25;7.85;;;4.70;;
5787;SDS011;2920;48.158;12.254;2024-01-07T06:14:50;6.68;;;4.70;;
5787;SDS011;2920;48.158;12.254;2024-01-07T06:17:15;7.93;;;4.40;;
5787;SDS011;2920;48.158;12.254;2024-01-07T06:19:41;8.38;;;4.63;;
5787;SDS011;2920;48.158;12.254;2024-01-07T06:22:06;7.95;;;4.90;;
5787;SDS011;2920;48.158;12.254;2024-01-07T06:24:31;9.02;;;4.32;;
5787;SDS011;2920;48.158;12.254;2024-01-07T06:26:56;7.90;;;4.35;;
5787;SDS011;2920;48.158;12.254;2024-01-07T06:29:22;8.48;;;4.43;;
5787;SDS011;2920;48.158;12.254;2024-01-07T06:31:47;7.53;;;3.70;;
5787;SDS011;2920;48.158;12.254;2024-01-07T06:34:13;5.30;;;3.38;;
5787;SDS011;2920;48.158;12.254;2024-01-07T06:36:39;6.70;;;3.97;;
5787;SDS011;2920;48.158;12.254;2024-01-07T06:39:06;5.95;;;4.10;;
5787;SDS011;2920;48.158;12.254;2024-01-07T06:41:32;5.50;;;3.20;;
5787;SDS011;2920;48.158;12.254;2024-01-07T06:43:58;7.85;;;4.57;;
5787;SDS011;2920;48.158;12.254;2024-01-07T06:46:23;9.48;;;4.85;;
5787;SDS011;2920;48.158;12.254;2024-01-07T06:48:49;6.97;;;4.30;;
5787;SDS011;2920;48.158;12.254;2024-01-07T06:51:14;6.03;;;3.88;;
5787;SDS011;2920;48.158;12.254;2024-01-07T06:53:40;8.00;;;3.90;;
5787;SDS011;2920;48.158;12.254;2024-01-07T06:56:05;6.95;;;4.18;;
5787;SDS011;2920;48.158;12.254;2024-01-07T06:58:31;6.47;;;4.03;;
5787;SDS011;2920;48.158;12.254;2024-01-07T07:00:57;6.85;;;3.92;;
5787;SDS011;2920;48.158;12.254;2024-01-07T07:03:22;8.07;;;3.97;;
5787;SDS011;2920;48.158;12.254;2024-01-07T07:05:48;6.32;;;4.28;;
5787;SDS011;2920;48.158;12.254;2024-01-07T07:08:13;6.82;;;3.95;;
5787;SDS011;2920;48.158;12.254;2024-01-07T07:10:38;6.63;;;3.58;;
5787;SDS011;2920;48.158;12.254;2024-01-07T07:13:04;7.40;;;4.25;;
5787;SDS011;2920;48.158;12.254;2024-01-07T07:15:29;5.45;;;3.97;;
5787;SDS011;2920;48.158;12.254;2024-01-07T07:17:55;7.35;;;4.03;;
5787;SDS011;2920;48.158;12.254;2024-01-07T07:20:21;6.38;;;3.65;;
5787;SDS011;2920;48.158;12.254;2024-01-07T07:22:46;5.50;;;3.65;;
5787;SDS011;2920;48.158;12.254;2024-01-07T07:25:11;7.43;;;4.22;;
5787;SDS011;2920;48.158;12.254;2024-01-07T07:27:36;7.60;;;4.25;;
5787;SDS011;2920;48.158;12.254;2024-01-07T07:30:03;7.97;;;3.88;;
5787;SDS011;2920;48.158;12.254;2024-01-07T07:32:29;6.30;;;3.95;;
5787;SDS011;2920;48.158;12.254;2024-01-07T07:34:54;8.57;;;3.75;;
5787;SDS011;2920;48.158;12.254;2024-01-07T07:37:20;6.50;;;4.22;;
5787;SDS011;2920;48.158;12.254;2024-01-07T07:39:45;6.72;;;4.32;;
5787;SDS011;2920;48.158;12.254;2024-01-07T07:42:10;7.35;;;4.82;;
5787;SDS011;2920;48.158;12.254;2024-01-07T07:44:36;8.70;;;4.22;;
5787;SDS011;2920;48.158;12.254;2024-01-07T07:47:01;7.35;;;3.58;;
5787;SDS011;2920;48.158;12.254;2024-01-07T07:49:27;15.25;;;7.88;;
5787;SDS011;2920;48.158;12.254;2024-01-07T07:51:52;8.45;;;4.60;;
5787;SDS011;2920;48.158;12.254;2024-01-07T07:54:17;10.55;;;5.22;;
5787;SDS011;2920;48.158;12.254;2024-01-07T07:56:43;9.07;;;4.78;;
5787;SDS011;2920;48.158;12.254;2024-01-07T07:59:08;6.93;;;4.00;;
5787;SDS011;2920;48.158;12.254;2024-01-07T08:01:34;6.22;;;3.92;;
5787;SDS011;2920;48.158;12.254;2024-01-07T08:03:59;8.57;;;5.35;;
5787;SDS011;2920;48.158;12.254;2024-01-07T08:06:24;7.40;;;4.10;;
5787;SDS011;2920;48.158;12.254;2024-01-07T08:08:50;7.43;;;4.38;;
5787;SDS011;2920;48.158;12.254;2024-01-07T08:11:15;7.60;;;4.80;;
5787;SDS011;2920;48.158;12.254;2024-01-07T08:13:40;8.45;;;4.13;;
5787;SDS011;2920;48.158;12.254;2024-01-07T08:16:06;8.80;;;4.78;;
5787;SDS011;2920;48.158;12.254;2024-01-07T08:18:32;7.38;;;4.13;;
5787;SDS011;2920;48.158;12.254;2024-01-07T08:20:57;8.13;;;4.03;;
5787;SDS011;2920;48.158;12.254;2024-01-07T08:23:26;8.80;;;5.18;;
5787;SDS011;2920;48.158;12.254;2024-01-07T08:25:52;8.10;;;4.00;;
5787;SDS011;2920;48.158;12.254;2024-01-07T08:28:17;9.27;;;4.78;;
5787;SDS011;2920;48.158;12.254;2024-01-07T08:30:43;8.18;;;4.53;;
5787;SDS011;2920;48.158;12.254;2024-01-07T08:33:09;8.50;;;4.40;;
5787;SDS011;2920;48.158;12.254;2024-01-07T08:35:35;8.02;;;4.22;;
5787;SDS011;2920;48.158;12.254;2024-01-07T08:38:00;8.15;;;4.15;;
5787;SDS011;2920;48.158;12.254;2024-01-07T08:40:25;6.85;;;4.03;;
5787;SDS011;2920;48.158;12.254;2024-01-07T08:42:51;8.27;;;4.88;;
5787;SDS011;2920;48.158;12.254;2024-01-07T08:45:16;5.45;;;3.53;;
5787;SDS011;2920;48.158;12.254;2024-01-07T08:47:41;7.68;;;4.15;;
5787;SDS011;2920;48.158;12.254;2024-01-07T08:50:07;6.93;;;3.92;;
5787;SDS011;2920;48.158;12.254;2024-01-07T08:52:32;5.97;;;3.92;;
5787;SDS011;2920;48.158;12.254;2024-01-07T08:55:00;9.02;;;4.20;;
5787;SDS011;2920;48.158;12.254;2024-01-07T08:57:26;7.55;;;3.78;;
5787;SDS011;2920;48.158;12.254;2024-01-07T08:59:52;8.80;;;3.97;;
5787;SDS011;2920;48.158;12.254;2024-01-07T09:02:17;6.57;;;3.95;;
5787;SDS011;2920;48.158;12.254;2024-01-07T09:04:43;7.63;;;4.45;;
5787;SDS011;2920;48.158;12.254;2024-01-07T09:07:08;7.70;;;4.15;;
5787;SDS011;2920;48.158;12.254;2024-01-07T09:09:33;7.93;;;5.07;;
5787;SDS011;2920;48.158;12.254;2024-01-07T09:11:58;10.45;;;5.40;;
5787;SDS011;2920;48.158;12.254;2024-01-07T09:14:25;6.03;;;3.90;;
5787;SDS011;2920;48.158;12.254;2024-01-07T09:16:50;10.30;;;4.38;;
5787;SDS011;2920;48.158;12.254;2024-01-07T09:19:16;8.75;;;4.70;;
5787;SDS011;2920;48.158;12.254;2024-01-07T09:21:42;11.48;;;5.47;;
5787;SDS011;2920;48.158;12.254;2024-01-07T09:24:08;10.23;;;5.75;;
5787;SDS011;2920;48.158;12.254;2024-01-07T09:26:33;9.65;;;5.22;;
5787;SDS011;2920;48.158;12.254;2024-01-07T09:28:59;12.45;;;5.32;;
5787;SDS011;2920;48.158;12.254;2024-01-07T09:31:24;9.77;;;5.10;;
5787;SDS011;2920;48.158;12.254;2024-01-07T09:33:49;9.30;;;4.93;;
5787;SDS011;2920;48.158;12.254;2024-01-07T09:36:14;8.52;;;4.85;;
5787;SDS011;2920;48.158;12.254;2024-01-07T09:38:41;9.88;;;5.15;;
5787;SDS011;2920;48.158;12.254;2024-01-07T09:41:06;9.73;;;4.88;;
5787;SDS011;2920;48.158;12.254;2024-01-07T09:43:32;12.25;;;4.80;;
5787;SDS011;2920;48.158;12.254;2024-01-07T09:45:57;10.38;;;4.63;;
5787;SDS011;2920;48.158;12.254;2024-01-07T09:48:23;11.07;;;5.38;;
5787;SDS011;2920;48.158;12.254;2024-01-07T09:50:49;10.50;;;5.47;;
5787;SDS011;2920;48.158;12.254;2024-01-07T09:53:16;9.93;;;4.72;;
5787;SDS011;2920;48.158;12.254;2024-01-07T09:58:45;10.57;;;5.07;;
5787;SDS011;2920;48.158;12.254;2024-01-07T10:01:14;10.05;;;5.05;;
5787;SDS011;2920;48.158;12.254;2024-01-07T10:03:40;8.65;;;4.72;;
5787;SDS011;2920;48.158;12.254;2024-01-07T10:06:06;7.60;;;4.63;;
5787;SDS011;2920;48.158;12.254;2024-01-07T10:08:32;8.35;;;4.75;;
5787;SDS011;2920;48.158;12.254;2024-01-07T10:10:57;9.65;;;4.93;;
5787;SDS011;2920;48.158;12.254;2024-01-07T10:13:23;9.40;;;5.50;;
5787;SDS011;2920;48.158;12.254;2024-01-07T10:15:48;10.93;;;5.78;;
5787;SDS011;2920;48.158;12.254;2024-01-07T10:18:13;14.20;;;6.03;;
5787;SDS011;2920;48.158;12.254;2024-01-07T10:20:39;9.38;;;5.20;;
5787;SDS011;2920;48.158;12.254;2024-01-07T10:23:04;11.38;;;6.22;;
5787;SDS011;2920;48.158;12.254;2024-01-07T10:25:32;11.77;;;6.35;;
5787;SDS011;2920;48.158;12.254;2024-01-07T10:28:00;9.93;;;5.32;;
5787;SDS011;2920;48.158;12.254;2024-01-07T10:30:27;11.73;;;6.30;;
5787;SDS011;2920;48.158;12.254;2024-01-07T10:32:57;12.10;;;5.63;;
5787;SDS011;2920;48.158;12.254;2024-01-07T10:35:22;16.92;;;7.95;;
5787;SDS011;2920;48.158;12.254;2024-01-07T10:37:56;13.38;;;6.53;;
5787;SDS011;2920;48.158;12.254;2024-01-07T10:40:22;10.55;;;5.60;;
5787;SDS011;2920;48.158;12.254;2024-01-07T10:42:48;10.43;;;6.45;;
5787;SDS011;2920;48.158;12.254;2024-01-07T10:45:14;11.93;;;6.18;;
5787;SDS011;2920;48.158;12.254;2024-01-07T10:47:39;9.60;;;5.70;;
5787;SDS011;2920;48.158;12.254;2024-01-07T10:50:06;9.23;;;5.68;;
5787;SDS011;2920;48.158;12.254;2024-01-07T10:52:33;9.88;;;5.28;;
5787;SDS011;2920;48.158;12.254;2024-01-07T10:55:03;10.50;;;5.45;;
5787;SDS011;2920;48.158;12.254;2024-01-07T11:00:05;12.50;;;5.82;;
5787;SDS011;2920;48.158;12.254;2024-01-07T11:02:34;9.85;;;5.53;;
5787;SDS011;2920;48.158;12.254;2024-01-07T11:07:50;10.45;;;5.97;;
5787;SDS011;2920;48.158;12.254;2024-01-07T11:10:22;10.60;;;6.38;;
5787;SDS011;2920;48.158;12.254;2024-01-07T11:12:54;7.75;;;5.05;;
5787;SDS011;2920;48.158;12.254;2024-01-07T11:18:16;13.52;;;6.80;;
5787;SDS011;2920;48.158;12.254;2024-01-07T11:20:42;11.02;;;5.90;;
5787;SDS011;2920;48.158;12.254;2024-01-07T11:25:55;10.13;;;5.80;;
5787;SDS011;2920;48.158;12.254;2024-01-07T11:28:34;10.88;;;5.25;;
5787;SDS011;2920;48.158;12.254;2024-01-07T11:31:09;10.25;;;5.22;;
5787;SDS011;2920;48.158;12.254;2024-01-07T11:33:37;10.15;;;5.40;;
5787;SDS011;2920;48.158;12.254;2024-01-07T11:36:04;10.55;;;5.38;;
5787;SDS011;2920;48.158;12.254;2024-01-07T11:38:30;10.60;;;5.40;;
5787;SDS011;2920;48.158;12.254;2024-01-07T11:40:56;11.68;;;5.93;;
5787;SDS011;2920;48.158;12.254;2024-01-07T11:43:21;10.00;;;5.25;;
5787;SDS011;2920;48.158;12.254;2024-01-07T11:45:49;9.93;;;6.38;;
5787;SDS011;2920;48.158;12.254;2024-01-07T11:48:14;10.93;;;6.10;;
5787;SDS011;2920;48.158;12.254;2024-01-07T11:50:40;9.70;;;5.03;;
5787;SDS011;2920;48.158;12.254;2024-01-07T11:53:06;8.05;;;5.43;;
5787;SDS011;2920;48.158;12.254;2024-01-07T11:55:31;8.38;;;4.47;;
5787;SDS011;2920;48.158;12.254;2024-01-07T11:58:00;9.25;;;5.65;;
5787;SDS011;2920;48.158;12.254;2024-01-07T12:00:27;8.02;;;4.75;;
5787;SDS011;2920;48.158;12.254;2024-01-07T12:02:52;6.93;;;4.28;;
5787;SDS011;2920;48.158;12.254;2024-01-07T12:05:17;10.52;;;5.20;;
5787;SDS011;2920;48.158;12.254;2024-01-07T12:07:44;11.68;;;4.82;;
5787;SDS011;2920;48.158;12.254;2024-01-07T12:10:09;8.15;;;4.53;;
5787;SDS011;2920;48.158;12.254;2024-01-07T12:12:41;7.53;;;4.55;;
5787;SDS011;2920;48.158;12.254;2024-01-07T12:17:33;7.93;;;4.70;;
5787;SDS011;2920;48.158;12.254;2024-01-07T12:19:59;8.18;;;5.03;;
5787;SDS011;2920;48.158;12.254;2024-01-07T12:22:26;5.82;;;4.13;;
5787;SDS011;2920;48.158;12.254;2024-01-07T12:25:07;8.32;;;4.43;;
5787;SDS011;2920;48.158;12.254;2024-01-07T12:27:33;10.38;;;5.45;;
5787;SDS011;2920;48.158;12.254;2024-01-07T12:29:59;10.10;;;4.72;;
5787;SDS011;2920;48.158;12.254;2024-01-07T12:32:30;8.60;;;4.95;;
5787;SDS011;2920;48.158;12.254;2024-01-07T12:34:59;8.10;;;4.65;;
5787;SDS011;2920;48.158;12.254;2024-01-07T12:37:27;9.88;;;4.88;;
5787;SDS011;2920;48.158;12.254;2024-01-07T12:39:53;8.90;;;4.80;;
5787;SDS011;2920;48.158;12.254;2024-01-07T12:42:19;8.00;;;4.97;;
5787;SDS011;2920;48.158;12.254;2024-01-07T12:44:47;9.32;;;5.22;;
5787;SDS011;2920;48.158;12.254;2024-01-07T12:47:13;10.63;;;5.05;;
5787;SDS011;2920;48.158;12.254;2024-01-07T12:49:39;7.70;;;4.60;;
5787;SDS011;2920;48.158;12.254;2024-01-07T12:52:04;8.73;;;5.20;;
5787;SDS011;2920;48.158;12.254;2024-01-07T12:54:30;10.77;;;5.43;;
5787;SDS011;2920;48.158;12.254;2024-01-07T12:56:55;7.55;;;5.03;;
5787;SDS011;2920;48.158;12.254;2024-01-07T12:59:20;11.73;;;5.45;;
5787;SDS011;2920;48.158;12.254;2024-01-07T13:01:46;9.20;;;5.00;;
5787;SDS011;2920;48.158;12.254;2024-01-07T13:04:11;9.30;;;4.97;;
5787;SDS011;2920;48.158;12.254;2024-01-07T13:06:36;7.13;;;4.45;;
5787;SDS011;2920;48.158;12.254;2024-01-07T13:09:02;8.70;;;5.07;;
5787;SDS011;2920;48.158;12.254;2024-01-07T13:11:31;8.00;;;4.97;;
5787;SDS011;2920;48.158;12.254;2024-01-07T13:13:56;17.85;;;6.32;;
5787;SDS011;2920;48.158;12.254;2024-01-07T13:16:25;9.38;;;5.07;;
5787;SDS011;2920;48.158;12.254;2024-01-07T13:18:51;10.68;;;5.93;;
5787;SDS011;2920;48.158;12.254;2024-01-07T13:21:16;9.60;;;6.28;;
5787;SDS011;2920;48.158;12.254;2024-01-07T13:23:42;8.77;;;4.82;;
5787;SDS011;2920;48.158;12.254;2024-01-07T13:26:09;7.75;;;4.63;;
5787;SDS011;2920;48.158;12.254;2024-01-07T13:28:35;7.90;;;4.95;;
5787;SDS011;2920;48.158;12.254;2024-01-07T13:31:00;7.30;;;4.43;;
5787;SDS011;2920;48.158;12.254;2024-01-07T13:33:25;10.60;;;5.45;;
5787;SDS011;2920;48.158;12.254;2024-01-07T13:35:51;9.27;;;5.70;;
5787;SDS011;2920;48.158;12.254;2024-01-07T13:38:16;9.85;;;5.18;;
5787;SDS011;2920;48.158;12.254;2024-01-07T13:40:41;9.63;;;5.00;;
5787;SDS011;2920;48.158;12.254;2024-01-07T13:43:07;7.90;;;4.65;;
5787;SDS011;2920;48.158;12.254;2024-01-07T13:45:32;9.98;;;5.10;;
5787;SDS011;2920;48.158;12.254;2024-01-07T13:47:57;18.08;;;10.25;;
5787;SDS011;2920;48.158;12.254;2024-01-07T13:50:23;9.80;;;5.35;;
5787;SDS011;2920;48.158;12.254;2024-01-07T13:52:48;9.73;;;5.43;;
5787;SDS011;2920;48.158;12.254;2024-01-07T13:55:13;9.05;;;5.13;;
5787;SDS011;2920;48.158;12.254;2024-01-07T13:57:39;8.20;;;4.85;;
5787;SDS011;2920;48.158;12.254;2024-01-07T14:00:06;8.10;;;5.05;;
5787;SDS011;2920;48.158;12.254;2024-01-07T14:02:34;8.95;;;4.63;;
5787;SDS011;2920;48.158;12.254;2024-01-07T14:05:02;7.05;;;4.72;;
5787;SDS011;2920;48.158;12.254;2024-01-07T14:07:31;8.23;;;4.82;;
5787;SDS011;2920;48.158;12.254;2024-01-07T14:09:56;7.28;;;4.28;;
5787;SDS011;2920;48.158;12.254;2024-01-07T14:12:21;7.28;;;4.05;;
5787;SDS011;2920;48.158;12.254;2024-01-07T14:14:47;6.63;;;4.00;;
5787;SDS011;2920;48.158;12.254;2024-01-07T14:17:12;8.85;;;5.03;;
5787;SDS011;2920;48.158;12.254;2024-01-07T14:19:37;9.18;;;4.78;;
5787;SDS011;2920;48.158;12.254;2024-01-07T14:22:03;9.70;;;4.97;;
5787;SDS011;2920;48.158;12.254;2024-01-07T14:24:28;8.02;;;4.90;;
5787;SDS011;2920;48.158;12.254;2024-01-07T14:26:53;8.60;;;5.45;;
5787;SDS011;2920;48.158;12.254;2024-01-07T14:29:19;9.00;;;5.18;;
5787;SDS011;2920;48.158;12.254;2024-01-07T14:31:44;8.90;;;5.00;;
5787;SDS011;2920;48.158;12.254;2024-01-07T14:34:11;8.50;;;5.13;;
5787;SDS011;2920;48.158;12.254;2024-01-07T14:36:39;7.20;;;4.50;;
5787;SDS011;2920;48.158;12.254;2024-01-07T14:39:06;9.85;;;5.25;;
5787;SDS011;2920;48.158;12.254;2024-01-07T14:41:33;8.50;;;5.45;;
5787;SDS011;2920;48.158;12.254;2024-01-07T14:43:59;8.65;;;5.35;;
5787;SDS011;2920;48.158;12.254;2024-01-07T14:46:25;9.20;;;5.53;;
5787;SDS011;2920;48.158;12.254;2024-01-07T14:48:50;7.22;;;5.18;;
5787;SDS011;2920;48.158;12.254;2024-01-07T14:51:15;10.82;;;5.45;;
5787;SDS011;2920;48.158;12.254;2024-01-07T14:53:41;9.48;;;5.80;;
5787;SDS011;2920;48.158;12.254;2024-01-07T14:56:07;9.18;;;5.47;;
5787;SDS011;2920;48.158;12.254;2024-01-07T14:58:32;9.50;;;5.68;;
5787;SDS011;2920;48.158;12.254;2024-01-07T15:00:57;10.70;;;5.70;;
5787;SDS011;2920;48.158;12.254;2024-01-07T15:03:23;15.63;;;10.10;;
5787;SDS011;2920;48.158;12.254;2024-01-07T15:05:50;9.43;;;5.97;;
5787;SDS011;2920;48.158;12.254;2024-01-07T15:08:15;7.95;;;5.78;;
5787;SDS011;2920;48.158;12.254;2024-01-07T15:10:40;12.95;;;6.55;;